sensor_id;sensor_type;location;lat;lon;timestamp;temperature;humidity
20319;DHT22;10317;47.254;11.314;2023-06-04T00:02:22;14.80;99.90
20319;DHT22;10317;47.254;11.314;2023-06-04T00:04:48;14.70;99.90
20319;DHT22;10317;47.254;11.314;2023-06-04T00:07:13;14.80;99.90
20319;DHT22;10317;47.254;11.314;2023-06-04T00:09:39;14.70;99.90
20319;DHT22;10317;47.254;11.314;2023-06-04T00:12:05;14.70;99.90
20319;DHT22;10317;47.254;11.314;2023-06-04T00:14:31;14.70;99.90
20319;DHT22;10317;47.254;11.314;2023-06-04T00:16:56;14.70;99.90
20319;DHT22;10317;47.254;11.314;2023-06-04T00:19:22;14.70;99.90
20319;DHT22;10317;47.254;11.314;2023-06-04T00:21:47;14.60;99.90
20319;DHT22;10317;47.254;11.314;2023-06-04T00:24:13;14.60;99.90
20319;DHT22;10317;47.254;11.314;2023-06-04T00:26:38;14.60;99.90
20319;DHT22;10317;47.254;11.314;2023-06-04T00:29:04;14.50;99.90
20319;DHT22;10317;47.254;11.314;2023-06-04T00:31:29;14.50;99.90
20319;DHT22;10317;47.254;11.314;2023-06-04T00:33:55;14.50;99.90
20319;DHT22;10317;47.254;11.314;2023-06-04T00:36:21;14.50;99.90
20319;DHT22;10317;47.254;11.314;2023-06-04T00:38:46;14.50;99.90
20319;DHT22;10317;47.254;11.314;2023-06-04T00:41:12;14.50;99.90
20319;DHT22;10317;47.254;11.314;2023-06-04T00:43:37;14.50;99.90
20319;DHT22;10317;47.254;11.314;2023-06-04T00:46:03;14.50;99.90
20319;DHT22;10317;47.254;11.314;2023-06-04T00:48:28;14.40;99.90
20319;DHT22;10317;47.254;11.314;2023-06-04T00:50:56;14.40;99.90
20319;DHT22;10317;47.254;11.314;2023-06-04T00:53:21;14.40;99.90
20319;DHT22;10317;47.254;11.314;2023-06-04T00:55:48;14.30;99.90
20319;DHT22;10317;47.254;11.314;2023-06-04T00:58:13;14.40;99.90
20319;DHT22;10317;47.254;11.314;2023-06-04T01:00:40;14.30;99.90
20319;DHT22;10317;47.254;11.314;2023-06-04T01:03:10;14.30;99.90
20319;DHT22;10317;47.254;11.314;2023-06-04T01:05:37;14.30;99.90
20319;DHT22;10317;47.254;11.314;2023-06-04T01:08:05;14.30;99.90
20319;DHT22;10317;47.254;11.314;2023-06-04T01:10:34;14.30;99.90
20319;DHT22;10317;47.254;11.314;2023-06-04T01:13:00;14.30;99.90
20319;DHT22;10317;47.254;11.314;2023-06-04T01:15:25;14.30;99.90
20319;DHT22;10317;47.254;11.314;2023-06-04T01:17:51;14.30;99.90
20319;DHT22;10317;47.254;11.314;2023-06-04T01:23:05;14.30;99.90
20319;DHT22;10317;47.254;11.314;2023-06-04T01:25:37;14.30;99.90
20319;DHT22;10317;47.254;11.314;2023-06-04T01:28:07;14.20;99.90
20319;DHT22;10317;47.254;11.314;2023-06-04T01:30:34;14.20;99.90
20319;DHT22;10317;47.254;11.314;2023-06-04T01:33:00;14.20;99.90
20319;DHT22;10317;47.254;11.314;2023-06-04T01:35:26;14.10;99.90
20319;DHT22;10317;47.254;11.314;2023-06-04T01:37:52;14.10;99.90
20319;DHT22;10317;47.254;11.314;2023-06-04T01:40:18;14.10;99.90
20319;DHT22;10317;47.254;11.314;2023-06-04T01:42:43;14.00;99.90
20319;DHT22;10317;47.254;11.314;2023-06-04T01:45:09;13.90;99.90
20319;DHT22;10317;47.254;11.314;2023-06-04T01:47:35;13.90;99.90
20319;DHT22;10317;47.254;11.314;2023-06-04T01:50:02;13.70;99.90
20319;DHT22;10317;47.254;11.314;2023-06-04T01:52:27;13.60;99.90
20319;DHT22;10317;47.254;11.314;2023-06-04T01:54:53;13.50;99.90
20319;DHT22;10317;47.254;11.314;2023-06-04T01:57:19;13.50;99.90
20319;DHT22;10317;47.254;11.314;2023-06-04T01:59:48;13.50;99.90
20319;DHT22;10317;47.254;11.314;2023-06-04T02:02:13;13.40;99.90
20319;DHT22;10317;47.254;11.314;2023-06-04T02:04:39;13.40;99.90
20319;DHT22;10317;47.254;11.314;2023-06-04T02:07:10;13.40;99.90
20319;DHT22;10317;47.254;11.314;2023-06-04T02:09:36;13.30;99.90
20319;DHT22;10317;47.254;11.314;2023-06-04T02:12:01;13.30;99.90
20319;DHT22;10317;47.254;11.314;2023-06-04T02:14:27;13.20;99.90
20319;DHT22;10317;47.254;11.314;2023-06-04T02:16:52;13.20;99.90
20319;DHT22;10317;47.254;11.314;2023-06-04T02:19:19;13.20;99.90
20319;DHT22;10317;47.254;11.314;2023-06-04T02:21:45;13.10;99.90
20319;DHT22;10317;47.254;11.314;2023-06-04T02:24:11;13.10;99.90
20319;DHT22;10317;47.254;11.314;2023-06-04T02:26:36;13.00;99.90
20319;DHT22;10317;47.254;11.314;2023-06-04T02:29:02;13.00;99.90
20319;DHT22;10317;47.254;11.314;2023-06-04T02:31:27;13.00;99.90
20319;DHT22;10317;47.254;11.314;2023-06-04T02:33:53;13.00;99.90
20319;DHT22;10317;47.254;11.314;2023-06-04T02:36:18;13.00;99.90
20319;DHT22;10317;47.254;11.314;2023-06-04T02:38:44;12.90;99.90
20319;DHT22;10317;47.254;11.314;2023-06-04T02:41:09;12.90;99.90
20319;DHT22;10317;47.254;11.314;2023-06-04T02:43:36;12.90;99.90
20319;DHT22;10317;47.254;11.314;2023-06-04T02:46:01;12.80;99.90
20319;DHT22;10317;47.254;11.314;2023-06-04T02:48:27;12.80;99.90
20319;DHT22;10317;47.254;11.314;2023-06-04T02:50:52;12.80;99.90
20319;DHT22;10317;47.254;11.314;2023-06-04T02:53:18;12.80;99.90
20319;DHT22;10317;47.254;11.314;2023-06-04T02:55:43;12.70;99.90
20319;DHT22;10317;47.254;11.314;2023-06-04T02:58:09;12.70;99.90
20319;DHT22;10317;47.254;11.314;2023-06-04T03:00:34;12.70;99.90
20319;DHT22;10317;47.254;11.314;2023-06-04T03:03:00;12.70;99.90
20319;DHT22;10317;47.254;11.314;2023-06-04T03:05:29;12.70;99.90
20319;DHT22;10317;47.254;11.314;2023-06-04T03:07:58;12.60;99.90
20319;DHT22;10317;47.254;11.314;2023-06-04T03:10:24;12.60;99.90
20319;DHT22;10317;47.254;11.314;2023-06-04T03:12:50;12.60;99.90
20319;DHT22;10317;47.254;11.314;2023-06-04T03:15:16;12.50;99.90
20319;DHT22;10317;47.254;11.314;2023-06-04T03:17:41;12.50;99.90
20319;DHT22;10317;47.254;11.314;2023-06-04T03:20:07;12.40;99.90
20319;DHT22;10317;47.254;11.314;2023-06-04T03:22:34;12.50;99.90
20319;DHT22;10317;47.254;11.314;2023-06-04T03:25:01;12.40;99.90
20319;DHT22;10317;47.254;11.314;2023-06-04T03:27:26;12.40;99.90
20319;DHT22;10317;47.254;11.314;2023-06-04T03:29:52;12.40;99.90
20319;DHT22;10317;47.254;11.314;2023-06-04T03:32:17;12.40;99.90
20319;DHT22;10317;47.254;11.314;2023-06-04T03:34:43;12.40;99.90
20319;DHT22;10317;47.254;11.314;2023-06-04T03:37:09;12.40;99.90
20319;DHT22;10317;47.254;11.314;2023-06-04T03:39:35;12.30;99.90
20319;DHT22;10317;47.254;11.314;2023-06-04T03:42:00;12.30;99.90
20319;DHT22;10317;47.254;11.314;2023-06-04T03:44:26;12.30;99.90
20319;DHT22;10317;47.254;11.314;2023-06-04T03:46:51;12.40;99.90
20319;DHT22;10317;47.254;11.314;2023-06-04T03:49:17;12.40;99.90
20319;DHT22;10317;47.254;11.314;2023-06-04T03:51:43;12.40;99.90
20319;DHT22;10317;47.254;11.314;2023-06-04T03:54:09;12.40;99.90
20319;DHT22;10317;47.254;11.314;2023-06-04T03:56:35;12.40;99.90
20319;DHT22;10317;47.254;11.314;2023-06-04T03:59:00;12.50;99.90
20319;DHT22;10317;47.254;11.314;2023-06-04T04:01:26;12.50;99.90
20319;DHT22;10317;47.254;11.314;2023-06-04T04:03:52;12.50;99.90
20319;DHT22;10317;47.254;11.314;2023-06-04T04:06:18;12.50;99.90
20319;DHT22;10317;47.254;11.314;2023-06-04T04:08:44;12.60;99.90
20319;DHT22;10317;47.254;11.314;2023-06-04T04:11:15;12.60;99.90
20319;DHT22;10317;47.254;11.314;2023-06-04T04:13:41;12.60;99.90
20319;DHT22;10317;47.254;11.314;2023-06-04T04:16:07;12.70;99.90
20319;DHT22;10317;47.254;11.314;2023-06-04T04:18:36;12.70;99.90
20319;DHT22;10317;47.254;11.314;2023-06-04T04:21:02;12.70;99.90
20319;DHT22;10317;47.254;11.314;2023-06-04T04:23:28;12.70;99.90
20319;DHT22;10317;47.254;11.314;2023-06-04T04:25:54;12.80;99.90
20319;DHT22;10317;47.254;11.314;2023-06-04T04:28:22;12.80;99.90
20319;DHT22;10317;47.254;11.314;2023-06-04T04:30:47;12.90;99.90
20319;DHT22;10317;47.254;11.314;2023-06-04T04:33:14;12.90;99.90
20319;DHT22;10317;47.254;11.314;2023-06-04T04:35:41;13.00;99.90
20319;DHT22;10317;47.254;11.314;2023-06-04T04:38:07;13.00;99.90
20319;DHT22;10317;47.254;11.314;2023-06-04T04:40:33;13.10;99.90
20319;DHT22;10317;47.254;11.314;2023-06-04T04:42:59;13.10;99.90
20319;DHT22;10317;47.254;11.314;2023-06-04T04:45:24;13.20;99.90
20319;DHT22;10317;47.254;11.314;2023-06-04T04:47:50;13.30;99.90
20319;DHT22;10317;47.254;11.314;2023-06-04T04:50:18;13.40;99.90
20319;DHT22;10317;47.254;11.314;2023-06-04T04:52:44;13.60;99.90
20319;DHT22;10317;47.254;11.314;2023-06-04T04:55:10;13.60;99.90
20319;DHT22;10317;47.254;11.314;2023-06-04T04:57:37;13.50;99.90
20319;DHT22;10317;47.254;11.314;2023-06-04T05:00:03;13.40;99.90
20319;DHT22;10317;47.254;11.314;2023-06-04T05:02:34;13.50;99.90
20319;DHT22;10317;47.254;11.314;2023-06-04T05:05:00;13.50;99.90
20319;DHT22;10317;47.254;11.314;2023-06-04T05:07:26;13.60;99.90
20319;DHT22;10317;47.254;11.314;2023-06-04T05:09:51;13.60;99.90
20319;DHT22;10317;47.254;11.314;2023-06-04T05:12:17;13.70;99.90
20319;DHT22;10317;47.254;11.314;2023-06-04T05:14:45;13.70;99.90
20319;DHT22;10317;47.254;11.314;2023-06-04T05:17:11;13.80;99.90
20319;DHT22;10317;47.254;11.314;2023-06-04T05:19:38;13.90;99.90
20319;DHT22;10317;47.254;11.314;2023-06-04T05:22:04;14.10;99.90
20319;DHT22;10317;47.254;11.314;2023-06-04T05:24:30;14.30;99.90
20319;DHT22;10317;47.254;11.314;2023-06-04T05:26:55;14.30;99.90
20319;DHT22;10317;47.254;11.314;2023-06-04T05:29:22;14.60;99.90
20319;DHT22;10317;47.254;11.314;2023-06-04T05:31:47;15.00;99.90
20319;DHT22;10317;47.254;11.314;2023-06-04T05:34:13;15.20;99.90
20319;DHT22;10317;47.254;11.314;2023-06-04T05:36:42;15.80;99.90
20319;DHT22;10317;47.254;11.314;2023-06-04T05:39:07;16.50;99.90
20319;DHT22;10317;47.254;11.314;2023-06-04T05:41:34;16.70;99.90
20319;DHT22;10317;47.254;11.314;2023-06-04T05:44:01;16.70;99.90
20319;DHT22;10317;47.254;11.314;2023-06-04T05:46:27;16.90;99.90
20319;DHT22;10317;47.254;11.314;2023-06-04T05:48:52;16.90;99.90
20319;DHT22;10317;47.254;11.314;2023-06-04T05:51:19;16.50;99.90
20319;DHT22;10317;47.254;11.314;2023-06-04T05:53:45;16.10;99.90
20319;DHT22;10317;47.254;11.314;2023-06-04T05:56:11;16.00;99.90
20319;DHT22;10317;47.254;11.314;2023-06-04T05:58:36;16.10;99.90
20319;DHT22;10317;47.254;11.314;2023-06-04T06:01:03;16.10;99.90
20319;DHT22;10317;47.254;11.314;2023-06-04T06:03:28;15.90;99.90
20319;DHT22;10317;47.254;11.314;2023-06-04T06:05:54;15.80;99.90
20319;DHT22;10317;47.254;11.314;2023-06-04T06:08:21;15.90;99.90
20319;DHT22;10317;47.254;11.314;2023-06-04T06:10:46;16.00;99.90
20319;DHT22;10317;47.254;11.314;2023-06-04T06:13:12;16.00;99.90
20319;DHT22;10317;47.254;11.314;2023-06-04T06:15:38;16.00;99.90
20319;DHT22;10317;47.254;11.314;2023-06-04T06:18:04;16.10;99.90
20319;DHT22;10317;47.254;11.314;2023-06-04T06:20:30;16.20;99.90
20319;DHT22;10317;47.254;11.314;2023-06-04T06:22:55;16.30;99.90
20319;DHT22;10317;47.254;11.314;2023-06-04T06:25:21;16.30;99.90
20319;DHT22;10317;47.254;11.314;2023-06-04T06:27:47;16.50;99.90
20319;DHT22;10317;47.254;11.314;2023-06-04T06:30:13;16.90;99.90
20319;DHT22;10317;47.254;11.314;2023-06-04T06:32:39;17.40;99.90
20319;DHT22;10317;47.254;11.314;2023-06-04T06:35:05;18.10;99.90
20319;DHT22;10317;47.254;11.314;2023-06-04T06:37:32;18.60;99.90
20319;DHT22;10317;47.254;11.314;2023-06-04T06:39:57;19.30;99.90
20319;DHT22;10317;47.254;11.314;2023-06-04T06:42:23;19.50;99.90
20319;DHT22;10317;47.254;11.314;2023-06-04T06:44:48;20.60;99.90
20319;DHT22;10317;47.254;11.314;2023-06-04T06:47:14;21.30;99.90
20319;DHT22;10317;47.254;11.314;2023-06-04T06:49:40;22.20;99.20
20319;DHT22;10317;47.254;11.314;2023-06-04T06:52:06;22.50;97.50
20319;DHT22;10317;47.254;11.314;2023-06-04T06:54:31;22.80;97.10
20319;DHT22;10317;47.254;11.314;2023-06-04T06:56:57;22.80;94.50
20319;DHT22;10317;47.254;11.314;2023-06-04T06:59:23;22.90;94.40
20319;DHT22;10317;47.254;11.314;2023-06-04T07:01:48;23.40;94.50
20319;DHT22;10317;47.254;11.314;2023-06-04T07:04:14;23.70;91.50
20319;DHT22;10317;47.254;11.314;2023-06-04T07:06:39;23.70;90.60
20319;DHT22;10317;47.254;11.314;2023-06-04T07:09:05;23.80;90.30
20319;DHT22;10317;47.254;11.314;2023-06-04T07:11:31;24.10;89.50
20319;DHT22;10317;47.254;11.314;2023-06-04T07:13:57;24.40;87.50
20319;DHT22;10317;47.254;11.314;2023-06-04T07:16:22;24.50;83.70
20319;DHT22;10317;47.254;11.314;2023-06-04T07:18:48;24.60;82.30
20319;DHT22;10317;47.254;11.314;2023-06-04T07:21:16;24.80;82.80
20319;DHT22;10317;47.254;11.314;2023-06-04T07:23:42;25.10;81.80
20319;DHT22;10317;47.254;11.314;2023-06-04T07:26:07;25.50;79.00
20319;DHT22;10317;47.254;11.314;2023-06-04T07:28:33;24.80;77.70
20319;DHT22;10317;47.254;11.314;2023-06-04T07:30:58;25.20;79.50
20319;DHT22;10317;47.254;11.314;2023-06-04T07:33:24;25.00;80.00
20319;DHT22;10317;47.254;11.314;2023-06-04T07:35:50;25.30;75.10
20319;DHT22;10317;47.254;11.314;2023-06-04T07:38:15;25.50;74.40
20319;DHT22;10317;47.254;11.314;2023-06-04T07:40:41;25.10;74.20
20319;DHT22;10317;47.254;11.314;2023-06-04T07:43:07;25.40;76.40
20319;DHT22;10317;47.254;11.314;2023-06-04T07:45:32;25.50;73.60
20319;DHT22;10317;47.254;11.314;2023-06-04T07:47:58;24.90;76.20
20319;DHT22;10317;47.254;11.314;2023-06-04T07:50:24;24.80;78.70
20319;DHT22;10317;47.254;11.314;2023-06-04T07:52:49;24.40;78.70
20319;DHT22;10317;47.254;11.314;2023-06-04T07:55:15;25.70;81.10
20319;DHT22;10317;47.254;11.314;2023-06-04T07:57:40;25.90;80.50
20319;DHT22;10317;47.254;11.314;2023-06-04T08:00:07;25.80;78.60
20319;DHT22;10317;47.254;11.314;2023-06-04T08:02:33;25.50;78.40
20319;DHT22;10317;47.254;11.314;2023-06-04T08:04:59;25.50;76.60
20319;DHT22;10317;47.254;11.314;2023-06-04T08:07:25;25.30;71.90
20319;DHT22;10317;47.254;11.314;2023-06-04T08:09:51;25.20;77.60
20319;DHT22;10317;47.254;11.314;2023-06-04T08:12:17;25.30;81.50
20319;DHT22;10317;47.254;11.314;2023-06-04T08:14:42;25.30;78.50
20319;DHT22;10317;47.254;11.314;2023-06-04T08:17:08;25.10;72.00
20319;DHT22;10317;47.254;11.314;2023-06-04T08:19:34;24.90;74.00
20319;DHT22;10317;47.254;11.314;2023-06-04T08:21:59;24.80;74.10
20319;DHT22;10317;47.254;11.314;2023-06-04T08:24:25;24.40;75.20
20319;DHT22;10317;47.254;11.314;2023-06-04T08:26:51;24.90;77.00
20319;DHT22;10317;47.254;11.314;2023-06-04T08:29:17;24.80;73.50
20319;DHT22;10317;47.254;11.314;2023-06-04T08:31:42;24.90;67.50
20319;DHT22;10317;47.254;11.314;2023-06-04T08:34:08;25.30;73.80
20319;DHT22;10317;47.254;11.314;2023-06-04T08:36:33;25.50;75.20
20319;DHT22;10317;47.254;11.314;2023-06-04T08:38:59;25.10;71.40
20319;DHT22;10317;47.254;11.314;2023-06-04T08:41:29;25.00;77.00
20319;DHT22;10317;47.254;11.314;2023-06-04T08:43:57;24.80;76.00
20319;DHT22;10317;47.254;11.314;2023-06-04T08:46:23;24.70;77.00
20319;DHT22;10317;47.254;11.314;2023-06-04T08:48:49;24.80;70.80
20319;DHT22;10317;47.254;11.314;2023-06-04T08:51:15;24.70;71.30
20319;DHT22;10317;47.254;11.314;2023-06-04T08:53:41;24.60;71.10
20319;DHT22;10317;47.254;11.314;2023-06-04T08:56:07;24.90;70.40
20319;DHT22;10317;47.254;11.314;2023-06-04T08:58:33;25.20;70.40
20319;DHT22;10317;47.254;11.314;2023-06-04T09:00:59;25.30;70.60
20319;DHT22;10317;47.254;11.314;2023-06-04T09:03:25;25.40;70.00
20319;DHT22;10317;47.254;11.314;2023-06-04T09:05:51;25.20;67.70
20319;DHT22;10317;47.254;11.314;2023-06-04T09:08:17;24.90;67.50
20319;DHT22;10317;47.254;11.314;2023-06-04T09:10:44;25.10;67.70
20319;DHT22;10317;47.254;11.314;2023-06-04T09:13:11;24.90;67.90
20319;DHT22;10317;47.254;11.314;2023-06-04T09:15:38;24.60;67.60
20319;DHT22;10317;47.254;11.314;2023-06-04T09:18:04;24.70;68.70
20319;DHT22;10317;47.254;11.314;2023-06-04T09:20:30;24.50;67.80
20319;DHT22;10317;47.254;11.314;2023-06-04T09:22:58;24.30;68.00
20319;DHT22;10317;47.254;11.314;2023-06-04T09:25:24;24.50;67.30
20319;DHT22;10317;47.254;11.314;2023-06-04T09:27:50;24.60;66.20
20319;DHT22;10317;47.254;11.314;2023-06-04T09:30:16;24.70;69.80
20319;DHT22;10317;47.254;11.314;2023-06-04T09:32:42;24.80;68.10
20319;DHT22;10317;47.254;11.314;2023-06-04T09:35:08;24.80;72.20
20319;DHT22;10317;47.254;11.314;2023-06-04T09:37:34;24.70;69.80
20319;DHT22;10317;47.254;11.314;2023-06-04T09:40:00;24.70;68.70
20319;DHT22;10317;47.254;11.314;2023-06-04T09:42:25;24.50;66.30
20319;DHT22;10317;47.254;11.314;2023-06-04T09:44:51;24.60;67.50
20319;DHT22;10317;47.254;11.314;2023-06-04T09:47:17;24.50;72.00
20319;DHT22;10317;47.254;11.314;2023-06-04T09:49:47;24.20;68.90
20319;DHT22;10317;47.254;11.314;2023-06-04T09:52:13;24.10;73.70
20319;DHT22;10317;47.254;11.314;2023-06-04T09:54:40;24.00;73.60
20319;DHT22;10317;47.254;11.314;2023-06-04T09:57:20;24.00;75.90
20319;DHT22;10317;47.254;11.314;2023-06-04T09:59:49;24.00;79.60
20319;DHT22;10317;47.254;11.314;2023-06-04T10:02:27;24.20;77.80
20319;DHT22;10317;47.254;11.314;2023-06-04T10:04:55;24.10;71.60
20319;DHT22;10317;47.254;11.314;2023-06-04T10:07:24;24.00;76.70
20319;DHT22;10317;47.254;11.314;2023-06-04T10:09:51;24.00;74.80
20319;DHT22;10317;47.254;11.314;2023-06-04T10:12:17;24.20;74.90
20319;DHT22;10317;47.254;11.314;2023-06-04T10:14:53;24.30;74.10
20319;DHT22;10317;47.254;11.314;2023-06-04T10:17:21;24.30;72.50
20319;DHT22;10317;47.254;11.314;2023-06-04T10:19:47;24.30;76.60
20319;DHT22;10317;47.254;11.314;2023-06-04T10:22:13;24.40;77.70
20319;DHT22;10317;47.254;11.314;2023-06-04T10:24:38;24.50;80.00
20319;DHT22;10317;47.254;11.314;2023-06-04T10:27:05;24.50;83.30
20319;DHT22;10317;47.254;11.314;2023-06-04T10:29:36;24.40;74.60
20319;DHT22;10317;47.254;11.314;2023-06-04T10:32:01;24.10;71.20
20319;DHT22;10317;47.254;11.314;2023-06-04T10:34:27;24.00;71.80
20319;DHT22;10317;47.254;11.314;2023-06-04T10:36:52;24.00;77.60
20319;DHT22;10317;47.254;11.314;2023-06-04T10:39:25;23.80;81.70
20319;DHT22;10317;47.254;11.314;2023-06-04T10:42:12;23.80;81.30
20319;DHT22;10317;47.254;11.314;2023-06-04T10:44:47;23.80;80.80
20319;DHT22;10317;47.254;11.314;2023-06-04T10:47:23;23.70;74.00
20319;DHT22;10317;47.254;11.314;2023-06-04T10:49:54;23.60;73.80
20319;DHT22;10317;47.254;11.314;2023-06-04T10:52:21;23.70;79.00
20319;DHT22;10317;47.254;11.314;2023-06-04T10:54:46;23.80;80.20
20319;DHT22;10317;47.254;11.314;2023-06-04T10:57:14;23.80;87.00
20319;DHT22;10317;47.254;11.314;2023-06-04T10:59:41;24.00;88.00
20319;DHT22;10317;47.254;11.314;2023-06-04T11:02:07;24.00;89.70
20319;DHT22;10317;47.254;11.314;2023-06-04T11:04:32;24.00;88.60
20319;DHT22;10317;47.254;11.314;2023-06-04T11:07:01;24.00;85.40
20319;DHT22;10317;47.254;11.314;2023-06-04T11:09:29;23.90;86.20
20319;DHT22;10317;47.254;11.314;2023-06-04T11:11:58;23.80;83.10
20319;DHT22;10317;47.254;11.314;2023-06-04T11:14:23;23.70;85.80
20319;DHT22;10317;47.254;11.314;2023-06-04T11:16:49;23.70;88.10
20319;DHT22;10317;47.254;11.314;2023-06-04T11:19:15;23.60;90.20
20319;DHT22;10317;47.254;11.314;2023-06-04T11:21:40;23.50;90.80
20319;DHT22;10317;47.254;11.314;2023-06-04T11:24:06;23.50;91.20
20319;DHT22;10317;47.254;11.314;2023-06-04T11:28:58;23.60;92.00
20319;DHT22;10317;47.254;11.314;2023-06-04T11:31:23;23.50;92.30
20319;DHT22;10317;47.254;11.314;2023-06-04T11:33:49;23.40;92.50
20319;DHT22;10317;47.254;11.314;2023-06-04T11:36:27;23.40;93.00
20319;DHT22;10317;47.254;11.314;2023-06-04T11:38:57;23.40;93.70
20319;DHT22;10317;47.254;11.314;2023-06-04T11:41:23;23.40;93.80
20319;DHT22;10317;47.254;11.314;2023-06-04T11:43:49;23.30;93.80
20319;DHT22;10317;47.254;11.314;2023-06-04T11:46:15;23.40;94.70
20319;DHT22;10317;47.254;11.314;2023-06-04T11:48:40;23.40;90.00
20319;DHT22;10317;47.254;11.314;2023-06-04T11:51:06;23.30;86.80
20319;DHT22;10317;47.254;11.314;2023-06-04T11:53:33;23.40;82.50
20319;DHT22;10317;47.254;11.314;2023-06-04T11:55:59;23.40;78.60
20319;DHT22;10317;47.254;11.314;2023-06-04T11:58:25;23.50;80.90
20319;DHT22;10317;47.254;11.314;2023-06-04T12:00:51;23.60;79.20
20319;DHT22;10317;47.254;11.314;2023-06-04T12:03:16;23.80;79.40
20319;DHT22;10317;47.254;11.314;2023-06-04T12:05:42;23.80;77.50
20319;DHT22;10317;47.254;11.314;2023-06-04T12:08:08;24.00;76.70
20319;DHT22;10317;47.254;11.314;2023-06-04T12:10:41;24.10;74.80
20319;DHT22;10317;47.254;11.314;2023-06-04T12:13:07;24.40;75.90
20319;DHT22;10317;47.254;11.314;2023-06-04T12:15:33;24.50;73.60
20319;DHT22;10317;47.254;11.314;2023-06-04T12:17:59;24.30;72.00
20319;DHT22;10317;47.254;11.314;2023-06-04T12:20:37;24.30;72.20
20319;DHT22;10317;47.254;11.314;2023-06-04T12:23:03;24.30;75.90
20319;DHT22;10317;47.254;11.314;2023-06-04T12:25:30;24.40;71.80
20319;DHT22;10317;47.254;11.314;2023-06-04T12:27:56;24.40;71.30
20319;DHT22;10317;47.254;11.314;2023-06-04T12:30:21;24.20;71.70
20319;DHT22;10317;47.254;11.314;2023-06-04T12:32:48;24.20;72.00
20319;DHT22;10317;47.254;11.314;2023-06-04T12:35:13;24.10;72.10
20319;DHT22;10317;47.254;11.314;2023-06-04T12:37:41;24.00;74.20
20319;DHT22;10317;47.254;11.314;2023-06-04T12:40:07;24.10;83.30
20319;DHT22;10317;47.254;11.314;2023-06-04T12:42:32;24.10;73.70
20319;DHT22;10317;47.254;11.314;2023-06-04T12:44:58;23.80;75.00
20319;DHT22;10317;47.254;11.314;2023-06-04T12:47:23;23.80;77.00
20319;DHT22;10317;47.254;11.314;2023-06-04T12:49:49;23.70;75.20
20319;DHT22;10317;47.254;11.314;2023-06-04T12:52:16;23.60;75.90
20319;DHT22;10317;47.254;11.314;2023-06-04T12:54:41;23.70;77.60
20319;DHT22;10317;47.254;11.314;2023-06-04T12:57:07;23.60;80.60
20319;DHT22;10317;47.254;11.314;2023-06-04T12:59:33;23.50;73.10
20319;DHT22;10317;47.254;11.314;2023-06-04T13:01:58;23.50;80.60
20319;DHT22;10317;47.254;11.314;2023-06-04T13:04:24;23.40;88.90
20319;DHT22;10317;47.254;11.314;2023-06-04T13:06:49;23.50;89.00
20319;DHT22;10317;47.254;11.314;2023-06-04T13:09:17;23.40;85.60
20319;DHT22;10317;47.254;11.314;2023-06-04T13:11:44;23.20;77.70
20319;DHT22;10317;47.254;11.314;2023-06-04T13:14:10;23.20;83.60
20319;DHT22;10317;47.254;11.314;2023-06-04T13:16:36;23.30;84.40
20319;DHT22;10317;47.254;11.314;2023-06-04T13:19:01;23.30;83.50
20319;DHT22;10317;47.254;11.314;2023-06-04T13:21:27;23.40;80.00
20319;DHT22;10317;47.254;11.314;2023-06-04T13:23:53;23.50;80.40
20319;DHT22;10317;47.254;11.314;2023-06-04T13:26:19;23.60;79.00
20319;DHT22;10317;47.254;11.314;2023-06-04T13:28:44;23.70;77.90
20319;DHT22;10317;47.254;11.314;2023-06-04T13:31:10;23.80;82.00
20319;DHT22;10317;47.254;11.314;2023-06-04T13:33:36;23.70;74.50
20319;DHT22;10317;47.254;11.314;2023-06-04T13:36:02;23.80;76.50
20319;DHT22;10317;47.254;11.314;2023-06-04T13:38:27;23.80;74.50
20319;DHT22;10317;47.254;11.314;2023-06-04T13:40:53;23.90;72.90
20319;DHT22;10317;47.254;11.314;2023-06-04T13:43:18;23.90;75.70
20319;DHT22;10317;47.254;11.314;2023-06-04T13:45:44;24.00;71.50
20319;DHT22;10317;47.254;11.314;2023-06-04T13:48:11;23.90;72.40
20319;DHT22;10317;47.254;11.314;2023-06-04T13:50:40;24.10;68.30
20319;DHT22;10317;47.254;11.314;2023-06-04T13:53:11;24.10;77.30
20319;DHT22;10317;47.254;11.314;2023-06-04T13:55:40;24.30;78.00
20319;DHT22;10317;47.254;11.314;2023-06-04T13:58:08;24.30;75.60
20319;DHT22;10317;47.254;11.314;2023-06-04T14:00:36;24.30;72.30
20319;DHT22;10317;47.254;11.314;2023-06-04T14:03:03;24.20;80.30
20319;DHT22;10317;47.254;11.314;2023-06-04T14:05:39;24.30;75.50
20319;DHT22;10317;47.254;11.314;2023-06-04T14:08:04;24.20;74.90
20319;DHT22;10317;47.254;11.314;2023-06-04T14:10:30;24.20;73.30
20319;DHT22;10317;47.254;11.314;2023-06-04T14:12:55;24.10;71.00
20319;DHT22;10317;47.254;11.314;2023-06-04T14:15:21;24.00;72.70
20319;DHT22;10317;47.254;11.314;2023-06-04T14:17:47;24.00;75.60
20319;DHT22;10317;47.254;11.314;2023-06-04T14:20:12;24.00;80.70
20319;DHT22;10317;47.254;11.314;2023-06-04T14:22:38;24.00;85.20
20319;DHT22;10317;47.254;11.314;2023-06-04T14:25:04;23.90;84.20
20319;DHT22;10317;47.254;11.314;2023-06-04T14:27:30;23.60;77.30
20319;DHT22;10317;47.254;11.314;2023-06-04T14:29:56;23.00;72.80
20319;DHT22;10317;47.254;11.314;2023-06-04T14:32:22;22.40;74.40
20319;DHT22;10317;47.254;11.314;2023-06-04T14:34:47;22.00;75.70
20319;DHT22;10317;47.254;11.314;2023-06-04T14:37:13;21.30;78.00
20319;DHT22;10317;47.254;11.314;2023-06-04T14:39:39;20.90;79.30
20319;DHT22;10317;47.254;11.314;2023-06-04T14:42:04;20.30;81.50
20319;DHT22;10317;47.254;11.314;2023-06-04T14:44:33;20.20;84.50
20319;DHT22;10317;47.254;11.314;2023-06-04T14:46:59;20.00;84.70
20319;DHT22;10317;47.254;11.314;2023-06-04T14:49:25;19.70;88.50
20319;DHT22;10317;47.254;11.314;2023-06-04T14:51:50;19.50;88.00
20319;DHT22;10317;47.254;11.314;2023-06-04T14:54:16;19.50;89.60
20319;DHT22;10317;47.254;11.314;2023-06-04T14:56:41;19.50;91.10
20319;DHT22;10317;47.254;11.314;2023-06-04T14:59:07;19.20;90.50
20319;DHT22;10317;47.254;11.314;2023-06-04T15:04:47;18.90;93.10
20319;DHT22;10317;47.254;11.314;2023-06-04T15:07:12;18.60;93.50
20319;DHT22;10317;47.254;11.314;2023-06-04T15:09:38;18.30;93.50
20319;DHT22;10317;47.254;11.314;2023-06-04T15:12:04;18.20;94.20
20319;DHT22;10317;47.254;11.314;2023-06-04T15:14:31;18.00;94.90
20319;DHT22;10317;47.254;11.314;2023-06-04T15:16:58;18.20;98.00
20319;DHT22;10317;47.254;11.314;2023-06-04T15:19:23;17.90;99.00